sensor_id;sensor_type;location;lat;lon;timestamp;temperature;humidity
975;DHT22;6115;49.296;10.602;2022-12-07T00:04:41;2.90;76.60
975;DHT22;6115;49.296;10.602;2022-12-07T00:09:42;3.00;76.20
975;DHT22;6115;49.296;10.602;2022-12-07T00:14:42;2.80;76.20
975;DHT22;6115;49.296;10.602;2022-12-07T00:19:43;2.70;77.10
975;DHT22;6115;49.296;10.602;2022-12-07T00:24:43;2.70;77.70
975;DHT22;6115;49.296;10.602;2022-12-07T00:29:44;2.70;77.70
975;DHT22;6115;49.296;10.602;2022-12-07T00:34:44;2.60;77.60
975;DHT22;6115;49.296;10.602;2022-12-07T00:39:45;2.70;77.50
975;DHT22;6115;49.296;10.602;2022-12-07T00:44:46;2.70;77.30
975;DHT22;6115;49.296;10.602;2022-12-07T00:49:47;2.70;77.50
975;DHT22;6115;49.296;10.602;2022-12-07T00:54:47;2.60;77.60
975;DHT22;6115;49.296;10.602;2022-12-07T00:59:48;2.60;77.60
975;DHT22;6115;49.296;10.602;2022-12-07T01:04:48;2.80;77.80
975;DHT22;6115;49.296;10.602;2022-12-07T01:09:49;2.70;77.80
975;DHT22;6115;49.296;10.602;2022-12-07T01:14:50;2.70;77.80
975;DHT22;6115;49.296;10.602;2022-12-07T01:19:50;2.70;77.80
975;DHT22;6115;49.296;10.602;2022-12-07T01:24:51;2.70;77.80
975;DHT22;6115;49.296;10.602;2022-12-07T01:29:51;2.70;77.80
975;DHT22;6115;49.296;10.602;2022-12-07T01:34:52;2.70;77.80
975;DHT22;6115;49.296;10.602;2022-12-07T01:39:52;2.80;77.80
975;DHT22;6115;49.296;10.602;2022-12-07T01:50:19;2.70;77.70
975;DHT22;6115;49.296;10.602;2022-12-07T01:55:20;2.90;77.90
975;DHT22;6115;49.296;10.602;2022-12-07T02:00:21;2.80;77.40
975;DHT22;6115;49.296;10.602;2022-12-07T02:05:23;2.60;77.60
975;DHT22;6115;49.296;10.602;2022-12-07T02:10:27;2.60;77.80
975;DHT22;6115;49.296;10.602;2022-12-07T02:21:03;2.70;77.80
975;DHT22;6115;49.296;10.602;2022-12-07T02:31:53;2.70;77.70
975;DHT22;6115;49.296;10.602;2022-12-07T02:37:00;2.70;77.80
975;DHT22;6115;49.296;10.602;2022-12-07T02:42:07;2.80;77.80
975;DHT22;6115;49.296;10.602;2022-12-07T02:47:13;2.80;77.60
975;DHT22;6115;49.296;10.602;2022-12-07T02:52:14;2.60;76.90
975;DHT22;6115;49.296;10.602;2022-12-07T02:57:33;2.50;76.80
975;DHT22;6115;49.296;10.602;2022-12-07T03:02:51;2.40;76.80
975;DHT22;6115;49.296;10.602;2022-12-07T03:13:23;2.30;75.90
975;DHT22;6115;49.296;10.602;2022-12-07T03:18:30;2.20;75.20
975;DHT22;6115;49.296;10.602;2022-12-07T03:23:34;2.00;74.70
975;DHT22;6115;49.296;10.602;2022-12-07T03:28:39;1.90;75.00
975;DHT22;6115;49.296;10.602;2022-12-07T03:33:49;1.80;75.60
975;DHT22;6115;49.296;10.602;2022-12-07T03:39:03;1.80;75.70
975;DHT22;6115;49.296;10.602;2022-12-07T03:44:06;1.70;75.10
975;DHT22;6115;49.296;10.602;2022-12-07T03:49:27;1.70;75.30
975;DHT22;6115;49.296;10.602;2022-12-07T03:54:56;1.60;75.30
975;DHT22;6115;49.296;10.602;2022-12-07T03:59:55;1.70;76.10
975;DHT22;6115;49.296;10.602;2022-12-07T04:04:57;1.60;76.40
975;DHT22;6115;49.296;10.602;2022-12-07T04:09:57;1.50;76.60
975;DHT22;6115;49.296;10.602;2022-12-07T04:14:58;1.60;76.70
975;DHT22;6115;49.296;10.602;2022-12-07T04:19:58;1.60;76.70
975;DHT22;6115;49.296;10.602;2022-12-07T04:24:59;1.50;76.60
975;DHT22;6115;49.296;10.602;2022-12-07T04:29:59;1.50;76.60
975;DHT22;6115;49.296;10.602;2022-12-07T04:35:00;1.50;76.60
975;DHT22;6115;49.296;10.602;2022-12-07T04:40:00;1.50;77.00
975;DHT22;6115;49.296;10.602;2022-12-07T04:45:01;1.60;76.70
975;DHT22;6115;49.296;10.602;2022-12-07T04:50:02;1.60;76.70
975;DHT22;6115;49.296;10.602;2022-12-07T04:55:03;1.50;76.60
975;DHT22;6115;49.296;10.602;2022-12-07T05:00:04;1.50;76.60
975;DHT22;6115;49.296;10.602;2022-12-07T05:05:05;1.50;77.30
975;DHT22;6115;49.296;10.602;2022-12-07T05:10:06;1.40;77.80
975;DHT22;6115;49.296;10.602;2022-12-07T05:15:07;1.50;78.30
975;DHT22;6115;49.296;10.602;2022-12-07T05:20:09;1.60;78.30
975;DHT22;6115;49.296;10.602;2022-12-07T05:25:09;1.70;78.20
975;DHT22;6115;49.296;10.602;2022-12-07T05:30:11;1.70;77.80
975;DHT22;6115;49.296;10.602;2022-12-07T05:35:11;1.60;78.30
975;DHT22;6115;49.296;10.602;2022-12-07T05:40:13;1.60;78.40
975;DHT22;6115;49.296;10.602;2022-12-07T05:45:14;1.60;78.40
975;DHT22;6115;49.296;10.602;2022-12-07T05:50:15;1.80;78.50
975;DHT22;6115;49.296;10.602;2022-12-07T05:55:15;1.70;78.60
975;DHT22;6115;49.296;10.602;2022-12-07T06:00:16;1.70;78.50
975;DHT22;6115;49.296;10.602;2022-12-07T06:05:17;1.70;78.70
975;DHT22;6115;49.296;10.602;2022-12-07T06:10:17;1.70;78.60
975;DHT22;6115;49.296;10.602;2022-12-07T06:15:18;1.80;78.70
975;DHT22;6115;49.296;10.602;2022-12-07T06:20:18;1.80;78.70
975;DHT22;6115;49.296;10.602;2022-12-07T06:25:19;1.80;78.50
975;DHT22;6115;49.296;10.602;2022-12-07T06:30:19;1.90;78.60
975;DHT22;6115;49.296;10.602;2022-12-07T06:35:20;2.00;78.20
975;DHT22;6115;49.296;10.602;2022-12-07T06:40:20;2.10;77.60
975;DHT22;6115;49.296;10.602;2022-12-07T06:45:21;2.00;77.10
975;DHT22;6115;49.296;10.602;2022-12-07T06:50:21;2.00;77.10
975;DHT22;6115;49.296;10.602;2022-12-07T06:55:22;2.00;77.10
975;DHT22;6115;49.296;10.602;2022-12-07T07:00:22;2.00;77.10
975;DHT22;6115;49.296;10.602;2022-12-07T07:05:23;2.10;77.20
975;DHT22;6115;49.296;10.602;2022-12-07T07:10:23;2.10;77.90
975;DHT22;6115;49.296;10.602;2022-12-07T07:15:24;2.10;77.20
975;DHT22;6115;49.296;10.602;2022-12-07T07:20:25;2.20;77.20
975;DHT22;6115;49.296;10.602;2022-12-07T07:25:25;2.30;76.70
975;DHT22;6115;49.296;10.602;2022-12-07T07:30:26;2.30;76.60
975;DHT22;6115;49.296;10.602;2022-12-07T07:35:28;2.30;76.60
975;DHT22;6115;49.296;10.602;2022-12-07T07:40:29;2.40;76.90
975;DHT22;6115;49.296;10.602;2022-12-07T07:45:30;2.40;75.90
975;DHT22;6115;49.296;10.602;2022-12-07T07:50:30;2.40;75.90
975;DHT22;6115;49.296;10.602;2022-12-07T07:55:31;2.40;75.80
975;DHT22;6115;49.296;10.602;2022-12-07T08:00:32;2.30;75.80
975;DHT22;6115;49.296;10.602;2022-12-07T08:05:32;2.40;76.50
975;DHT22;6115;49.296;10.602;2022-12-07T08:10:33;2.50;76.60
975;DHT22;6115;49.296;10.602;2022-12-07T08:15:37;2.70;76.20
975;DHT22;6115;49.296;10.602;2022-12-07T08:20:39;2.60;75.60
975;DHT22;6115;49.296;10.602;2022-12-07T08:25:40;2.70;75.30
975;DHT22;6115;49.296;10.602;2022-12-07T08:30:40;2.80;75.00
975;DHT22;6115;49.296;10.602;2022-12-07T08:35:41;2.70;74.40
975;DHT22;6115;49.296;10.602;2022-12-07T08:40:41;2.90;74.20
975;DHT22;6115;49.296;10.602;2022-12-07T08:45:42;2.90;73.20
975;DHT22;6115;49.296;10.602;2022-12-07T08:50:45;2.90;73.20
975;DHT22;6115;49.296;10.602;2022-12-07T08:55:46;2.80;73.10
975;DHT22;6115;49.296;10.602;2022-12-07T09:00:47;2.80;73.80
975;DHT22;6115;49.296;10.602;2022-12-07T09:05:48;2.80;73.10
975;DHT22;6115;49.296;10.602;2022-12-07T09:10:48;2.70;73.20
975;DHT22;6115;49.296;10.602;2022-12-07T09:15:49;2.80;73.10
975;DHT22;6115;49.296;10.602;2022-12-07T09:20:50;2.90;73.20
975;DHT22;6115;49.296;10.602;2022-12-07T09:25:50;2.90;73.20
975;DHT22;6115;49.296;10.602;2022-12-07T09:30:51;2.80;72.50
975;DHT22;6115;49.296;10.602;2022-12-07T09:35:52;3.00;72.30
975;DHT22;6115;49.296;10.602;2022-12-07T09:40:54;3.20;71.30
975;DHT22;6115;49.296;10.602;2022-12-07T09:45:55;3.00;70.10
975;DHT22;6115;49.296;10.602;2022-12-07T09:50:58;3.10;70.50
975;DHT22;6115;49.296;10.602;2022-12-07T09:56:01;3.30;70.80
975;DHT22;6115;49.296;10.602;2022-12-07T10:01:14;3.20;69.50
975;DHT22;6115;49.296;10.602;2022-12-07T10:06:15;3.30;70.50
975;DHT22;6115;49.296;10.602;2022-12-07T10:11:19;3.10;70.00
975;DHT22;6115;49.296;10.602;2022-12-07T10:16:41;3.00;70.60
975;DHT22;6115;49.296;10.602;2022-12-07T10:21:59;3.10;71.30
975;DHT22;6115;49.296;10.602;2022-12-07T10:27:00;3.20;71.40
975;DHT22;6115;49.296;10.602;2022-12-07T10:42:27;3.00;72.10
975;DHT22;6115;49.296;10.602;2022-12-07T10:47:34;3.00;73.20
975;DHT22;6115;49.296;10.602;2022-12-07T10:52:45;3.00;73.30
975;DHT22;6115;49.296;10.602;2022-12-07T10:58:27;2.90;73.20
975;DHT22;6115;49.296;10.602;2022-12-07T11:15:10;3.00;74.90
975;DHT22;6115;49.296;10.602;2022-12-07T11:25:32;3.20;75.30
975;DHT22;6115;49.296;10.602;2022-12-07T11:41:30;3.30;74.30
975;DHT22;6115;49.296;10.602;2022-12-07T11:47:20;3.10;74.40
975;DHT22;6115;49.296;10.602;2022-12-07T11:52:02;3.10;75.30
975;DHT22;6115;49.296;10.602;2022-12-07T11:57:11;3.20;75.00
975;DHT22;6115;49.296;10.602;2022-12-07T12:02:20;3.30;74.90
975;DHT22;6115;49.296;10.602;2022-12-07T12:07:26;3.30;75.00
975;DHT22;6115;49.296;10.602;2022-12-07T12:12:40;3.20;74.80
975;DHT22;6115;49.296;10.602;2022-12-07T12:28:40;3.20;76.40
975;DHT22;6115;49.296;10.602;2022-12-07T12:34:32;3.30;75.90
975;DHT22;6115;49.296;10.602;2022-12-07T12:39:33;3.20;76.30
975;DHT22;6115;49.296;10.602;2022-12-07T12:49:40;3.30;75.60
975;DHT22;6115;49.296;10.602;2022-12-07T12:55:25;3.10;76.00
975;DHT22;6115;49.296;10.602;2022-12-07T13:00:29;3.20;76.70
975;DHT22;6115;49.296;10.602;2022-12-07T13:05:31;3.20;76.70
975;DHT22;6115;49.296;10.602;2022-12-07T13:10:38;3.40;76.60
975;DHT22;6115;49.296;10.602;2022-12-07T13:15:48;3.30;76.40
975;DHT22;6115;49.296;10.602;2022-12-07T13:26:35;3.30;77.60
975;DHT22;6115;49.296;10.602;2022-12-07T13:31:43;3.20;76.90
975;DHT22;6115;49.296;10.602;2022-12-07T13:36:44;3.20;77.10
975;DHT22;6115;49.296;10.602;2022-12-07T13:41:50;3.30;77.60
975;DHT22;6115;49.296;10.602;2022-12-07T13:47:04;3.30;76.40
975;DHT22;6115;49.296;10.602;2022-12-07T13:52:20;3.30;76.60
975;DHT22;6115;49.296;10.602;2022-12-07T13:57:22;3.40;76.30
975;DHT22;6115;49.296;10.602;2022-12-07T14:02:32;3.20;75.90
975;DHT22;6115;49.296;10.602;2022-12-07T14:07:34;3.30;76.00
975;DHT22;6115;49.296;10.602;2022-12-07T14:12:36;3.40;75.60
975;DHT22;6115;49.296;10.602;2022-12-07T14:17:52;3.20;74.70
975;DHT22;6115;49.296;10.602;2022-12-07T14:22:56;3.20;74.80
975;DHT22;6115;49.296;10.602;2022-12-07T14:27:59;3.10;74.60
975;DHT22;6115;49.296;10.602;2022-12-07T14:33:04;3.20;74.80
975;DHT22;6115;49.296;10.602;2022-12-07T14:38:05;3.30;74.60
975;DHT22;6115;49.296;10.602;2022-12-07T14:43:11;3.30;74.40
975;DHT22;6115;49.296;10.602;2022-12-07T14:48:15;3.40;74.30
975;DHT22;6115;49.296;10.602;2022-12-07T14:53:17;3.30;74.30
975;DHT22;6115;49.296;10.602;2022-12-07T14:58:18;3.40;74.30
975;DHT22;6115;49.296;10.602;2022-12-07T15:03:20;3.30;74.60
975;DHT22;6115;49.296;10.602;2022-12-07T15:08:21;3.40;74.70
975;DHT22;6115;49.296;10.602;2022-12-07T15:13:21;3.50;74.50
975;DHT22;6115;49.296;10.602;2022-12-07T15:18:40;3.50;73.80
975;DHT22;6115;49.296;10.602;2022-12-07T15:23:41;3.40;73.70
975;DHT22;6115;49.296;10.602;2022-12-07T15:28:42;3.40;73.70
975;DHT22;6115;49.296;10.602;2022-12-07T15:33:43;3.40;73.70
975;DHT22;6115;49.296;10.602;2022-12-07T15:38:44;3.40;73.70
975;DHT22;6115;49.296;10.602;2022-12-07T15:43:45;3.40;73.80
975;DHT22;6115;49.296;10.602;2022-12-07T15:49:25;3.50;73.70
975;DHT22;6115;49.296;10.602;2022-12-07T15:54:27;3.50;73.70
975;DHT22;6115;49.296;10.602;2022-12-07T15:59:28;3.50;73.80
975;DHT22;6115;49.296;10.602;2022-12-07T16:04:29;3.50;73.80
975;DHT22;6115;49.296;10.602;2022-12-07T16:09:30;3.40;73.60
975;DHT22;6115;49.296;10.602;2022-12-07T16:14:30;3.40;73.60
975;DHT22;6115;49.296;10.602;2022-12-07T16:19:34;3.40;73.30
975;DHT22;6115;49.296;10.602;2022-12-07T16:24:35;3.40;73.30
975;DHT22;6115;49.296;10.602;2022-12-07T16:29:35;3.30;73.60
975;DHT22;6115;49.296;10.602;2022-12-07T16:34:36;3.30;73.40
975;DHT22;6115;49.296;10.602;2022-12-07T16:39:37;3.20;73.40
975;DHT22;6115;49.296;10.602;2022-12-07T16:44:37;3.00;73.30
975;DHT22;6115;49.296;10.602;2022-12-07T16:49:38;3.00;73.40
975;DHT22;6115;49.296;10.602;2022-12-07T16:54:38;3.00;73.30
975;DHT22;6115;49.296;10.602;2022-12-07T16:59:39;2.80;73.70
975;DHT22;6115;49.296;10.602;2022-12-07T17:04:40;2.80;74.10
975;DHT22;6115;49.296;10.602;2022-12-07T17:09:42;2.70;74.20
975;DHT22;6115;49.296;10.602;2022-12-07T17:14:43;2.60;74.60
975;DHT22;6115;49.296;10.602;2022-12-07T17:20:02;2.60;75.00
975;DHT22;6115;49.296;10.602;2022-12-07T17:25:05;2.50;74.80
975;DHT22;6115;49.296;10.602;2022-12-07T17:30:07;2.50;75.20
975;DHT22;6115;49.296;10.602;2022-12-07T17:35:08;2.40;75.60
975;DHT22;6115;49.296;10.602;2022-12-07T17:40:09;2.50;75.70
975;DHT22;6115;49.296;10.602;2022-12-07T17:45:10;2.50;75.80
975;DHT22;6115;49.296;10.602;2022-12-07T17:50:11;2.60;75.90
975;DHT22;6115;49.296;10.602;2022-12-07T17:55:12;2.60;75.80
975;DHT22;6115;49.296;10.602;2022-12-07T18:00:13;2.70;76.10
975;DHT22;6115;49.296;10.602;2022-12-07T18:05:14;2.70;76.00
975;DHT22;6115;49.296;10.602;2022-12-07T18:10:14;2.50;76.20
975;DHT22;6115;49.296;10.602;2022-12-07T18:15:15;2.50;76.50
975;DHT22;6115;49.296;10.602;2022-12-07T18:20:15;2.60;76.70
975;DHT22;6115;49.296;10.602;2022-12-07T18:25:16;2.50;77.00
975;DHT22;6115;49.296;10.602;2022-12-07T18:30:17;2.50;77.10
975;DHT22;6115;49.296;10.602;2022-12-07T18:35:17;2.50;77.30
975;DHT22;6115;49.296;10.602;2022-12-07T18:40:18;2.60;77.20
975;DHT22;6115;49.296;10.602;2022-12-07T18:45:18;2.70;77.10
975;DHT22;6115;49.296;10.602;2022-12-07T18:50:19;2.60;77.10
975;DHT22;6115;49.296;10.602;2022-12-07T18:55:20;2.60;77.60
975;DHT22;6115;49.296;10.602;2022-12-07T19:00:21;2.60;77.60
975;DHT22;6115;49.296;10.602;2022-12-07T19:05:22;2.60;77.50
975;DHT22;6115;49.296;10.602;2022-12-07T19:10:23;2.60;78.20
975;DHT22;6115;49.296;10.602;2022-12-07T19:15:24;2.60;77.20
975;DHT22;6115;49.296;10.602;2022-12-07T19:20:24;2.60;77.60
975;DHT22;6115;49.296;10.602;2022-12-07T19:25:25;2.60;77.60
975;DHT22;6115;49.296;10.602;2022-12-07T19:30:26;2.70;77.20
975;DHT22;6115;49.296;10.602;2022-12-07T19:35:26;2.60;77.00
975;DHT22;6115;49.296;10.602;2022-12-07T19:40:27;2.60;76.70
975;DHT22;6115;49.296;10.602;2022-12-07T19:45:27;2.60;76.90
975;DHT22;6115;49.296;10.602;2022-12-07T19:50:28;2.70;77.30
975;DHT22;6115;49.296;10.602;2022-12-07T19:55:29;2.70;76.30
975;DHT22;6115;49.296;10.602;2022-12-07T20:00:29;2.70;76.20
975;DHT22;6115;49.296;10.602;2022-12-07T20:05:30;2.80;76.00
975;DHT22;6115;49.296;10.602;2022-12-07T20:10:31;2.70;76.00
975;DHT22;6115;49.296;10.602;2022-12-07T20:15:36;2.70;76.00
975;DHT22;6115;49.296;10.602;2022-12-07T20:20:37;2.70;75.90
975;DHT22;6115;49.296;10.602;2022-12-07T20:25:37;2.60;75.70
975;DHT22;6115;49.296;10.602;2022-12-07T20:30:46;2.50;75.80
975;DHT22;6115;49.296;10.602;2022-12-07T20:35:47;2.40;76.50
975;DHT22;6115;49.296;10.602;2022-12-07T20:40:49;2.40;76.70
975;DHT22;6115;49.296;10.602;2022-12-07T20:45:49;2.50;76.70
975;DHT22;6115;49.296;10.602;2022-12-07T20:50:50;2.50;76.60
975;DHT22;6115;49.296;10.602;2022-12-07T20:55:51;2.50;76.40
975;DHT22;6115;49.296;10.602;2022-12-07T21:00:51;2.60;76.10
975;DHT22;6115;49.296;10.602;2022-12-07T21:05:52;2.70;76.10
975;DHT22;6115;49.296;10.602;2022-12-07T21:10:52;2.70;75.60
975;DHT22;6115;49.296;10.602;2022-12-07T21:15:53;2.70;75.20
975;DHT22;6115;49.296;10.602;2022-12-07T21:20:54;2.70;75.20
975;DHT22;6115;49.296;10.602;2022-12-07T21:25:55;2.60;74.70
975;DHT22;6115;49.296;10.602;2022-12-07T21:30:57;2.60;74.70
975;DHT22;6115;49.296;10.602;2022-12-07T21:35:58;2.60;74.90
975;DHT22;6115;49.296;10.602;2022-12-07T21:40:58;2.60;74.50
975;DHT22;6115;49.296;10.602;2022-12-07T21:45:59;2.60;74.40
975;DHT22;6115;49.296;10.602;2022-12-07T21:51:06;2.60;74.50
975;DHT22;6115;49.296;10.602;2022-12-07T21:56:19;2.60;74.60
975;DHT22;6115;49.296;10.602;2022-12-07T22:01:23;2.70;74.60
975;DHT22;6115;49.296;10.602;2022-12-07T22:06:25;2.60;74.20
975;DHT22;6115;49.296;10.602;2022-12-07T22:11:26;2.50;74.40
975;DHT22;6115;49.296;10.602;2022-12-07T22:16:26;2.60;74.30
975;DHT22;6115;49.296;10.602;2022-12-07T22:21:28;2.60;74.50
975;DHT22;6115;49.296;10.602;2022-12-07T22:26:30;2.60;74.50
975;DHT22;6115;49.296;10.602;2022-12-07T22:31:30;2.50;74.60
975;DHT22;6115;49.296;10.602;2022-12-07T22:36:31;2.40;75.00
975;DHT22;6115;49.296;10.602;2022-12-07T22:41:32;2.40;75.10
975;DHT22;6115;49.296;10.602;2022-12-07T22:46:32;2.50;75.10
975;DHT22;6115;49.296;10.602;2022-12-07T22:51:35;2.50;74.70
975;DHT22;6115;49.296;10.602;2022-12-07T22:56:37;2.40;74.50
975;DHT22;6115;49.296;10.602;2022-12-07T23:01:37;2.20;74.60
975;DHT22;6115;49.296;10.602;2022-12-07T23:06:38;2.20;75.80
975;DHT22;6115;49.296;10.602;2022-12-07T23:11:41;2.10;75.30
975;DHT22;6115;49.296;10.602;2022-12-07T23:17:01;2.00;75.50
975;DHT22;6115;49.296;10.602;2022-12-07T23:22:02;2.00;75.70
975;DHT22;6115;49.296;10.602;2022-12-07T23:27:03;2.00;75.60
975;DHT22;6115;49.296;10.602;2022-12-07T23:32:03;2.00;75.50
975;DHT22;6115;49.296;10.602;2022-12-07T23:37:04;2.10;75.80
975;DHT22;6115;49.296;10.602;2022-12-07T23:42:04;2.20;75.50
975;DHT22;6115;49.296;10.602;2022-12-07T23:47:05;2.20;75.30
975;DHT22;6115;49.296;10.602;2022-12-07T23:52:05;2.30;75.40
975;DHT22;6115;49.296;10.602;2022-12-07T23:57:06;2.20;74.90
